Time,TemperatureF,DewpointF,PressureIn,WindDirection,WindDirectionDegrees,WindSpeedMPH,WindSpeedGustMPH,Humidity,HourlyPrecipIn,Conditions,Clouds,dailyrainin,SoftwareType,DateUTC
2013-03-05 00:14:00,31.3,23.0,23.28,North,5,12.0,-999.0,71,-99.99,,,0.00,weatherlink.com 1.10,2013-03-05 05:14:00,
2013-03-05 00:29:00,31.5,23.0,23.28,ENE,71,0.0,-999.0,71,-99.99,,,0.00,weatherlink.com 1.10,2013-03-05 05:29:00,
2013-03-05 00:44:00,31.5,24.0,23.28,NNE,22,4.0,-999.0,73,-99.99,,,0.00,weatherlink.com 1.10,2013-03-05 05:44:00,
2013-03-05 00:59:00,31.5,23.0,23.28,NE,48,3.0,-999.0,71,-99.99,,,0.00,weatherlink.com 1.10,2013-03-05 05:59:00,
2013-03-05 01:14:00,31.4,23.0,23.28,NNW,338,3.0,-999.0,71,-99.99,,,0.00,weatherlink.com 1.10,2013-03-05 06:14:00,
2013-03-05 01:29:00,31.3,23.0,23.28,NW,309,0.0,-999.0,72,-99.99,,,0.00,weatherlink.com 1.10,2013-03-05 06:29:00,
2013-03-05 01:44:00,31.2,23.0,24.02,North,5,0.0,-999.0,71,-99.99,,,0.00,weatherlink.com 1.10,2013-03-05 06:44:00,
2013-03-05 01:59:00,31.3,23.0,24.02,NNW,335,3.0,-999.0,71,-99.99,,,0.00,weatherlink.com 1.10,2013-03-05 06:59:00,
2013-03-05 02:13:00,31.4,23.0,24.02,NNW,336,2.0,-999.0,71,-99.99,,,0.00,weatherlink.com 1.10,2013-03-05 07:13:00,
2013-03-05 02:28:00,31.3,23.0,24.02,NNE,26,4.0,-999.0,71,-99.99,,,0.00,weatherlink.com 1.10,2013-03-05 07:28:00,
2013-03-05 02:43:00,31.2,23.0,24.02,NW,318,3.0,-999.0,72,-99.99,,,0.00,weatherlink.com 1.10,2013-03-05 07:43:00,
2013-03-05 02:59:00,31.1,23.0,24.02,NNW,337,4.0,-999.0,72,-99.99,,,0.00,weatherlink.com 1.10,2013-03-05 07:59:00,
2013-03-05 03:14:00,31.0,23.0,23.90,NNW,339,1.0,-999.0,72,-99.99,,,0.00,weatherlink.com 1.10,2013-03-05 08:14:00,
2013-03-05 03:29:00,31.1,23.0,23.90,WNW,298,0.0,-999.0,73,-99.99,,,0.00,weatherlink.com 1.10,2013-03-05 08:29:00,
2013-03-05 03:44:00,31.0,23.0,23.90,North,360,2.0,-999.0,72,-99.99,,,0.00,weatherlink.com 1.10,2013-03-05 08:44:00,
2013-03-05 03:58:00,30.5,23.0,23.90,NW,311,0.0,-999.0,73,-99.99,,,0.00,weatherlink.com 1.10,2013-03-05 08:58:00,
2013-03-05 04:13:00,30.2,23.0,23.90,WNW,302,1.0,-999.0,74,-99.99,,,0.00,weatherlink.com 1.10,2013-03-05 09:13:00,
2013-03-05 04:28:00,30.3,23.0,23.90,NE,41,3.0,-999.0,74,-99.99,,,0.00,weatherlink.com 1.10,2013-03-05 09:28:00,
2013-03-05 04:43:00,30.6,23.0,23.90,North,9,0.0,-999.0,74,-99.99,,,0.00,weatherlink.com 1.10,2013-03-05 09:43:00,
2013-03-05 04:58:00,30.8,23.0,23.90,NNW,335,0.0,-999.0,74,-99.99,,,0.00,weatherlink.com 1.10,2013-03-05 09:58:00,
2013-03-05 05:14:00,30.9,24.0,23.90,NW,326,0.0,-999.0,74,-99.99,,,0.00,weatherlink.com 1.10,2013-03-05 10:14:00,
2013-03-05 05:29:00,30.9,23.0,23.90,NW,317,2.0,-999.0,73,-99.99,,,0.00,weatherlink.com 1.10,2013-03-05 10:29:00,
2013-03-05 05:44:00,31.0,24.0,23.90,NNW,336,0.0,-999.0,74,-99.99,,,0.00,weatherlink.com 1.10,2013-03-05 10:44:00,
2013-03-05 05:58:00,31.0,24.0,23.90,NW,313,1.0,-999.0,74,-99.99,,,0.00,weatherlink.com 1.10,2013-03-05 10:58:00,
2013-03-05 06:13:00,30.9,24.0,23.90,SE,126,1.0,-999.0,74,-99.99,,,0.00,weatherlink.com 1.10,2013-03-05 11:13:00,
2013-03-05 06:28:00,31.0,24.0,23.90,North,5,0.0,-999.0,74,-99.99,,,0.00,weatherlink.com 1.10,2013-03-05 11:28:00,
2013-03-05 06:43:00,31.0,23.0,23.90,North,11,0.0,-999.0,73,-99.99,,,0.00,weatherlink.com 1.10,2013-03-05 11:43:00,
2013-03-05 06:58:00,31.2,24.0,23.90,North,355,2.0,-999.0,74,-99.99,,,0.00,weatherlink.com 1.10,2013-03-05 11:58:00,
2013-03-05 07:14:00,31.9,24.0,23.90,NE,40,0.0,-999.0,72,-99.99,,,0.00,weatherlink.com 1.10,2013-03-05 12:14:00,
2013-03-05 07:28:00,32.6,24.0,23.90,NNW,346,0.0,-999.0,71,-99.99,,,0.00,weatherlink.com 1.10,2013-03-05 12:28:00,
2013-03-05 07:44:00,33.2,24.0,25.59,North,355,5.0,-999.0,69,-99.99,,,0.00,weatherlink.com 1.10,2013-03-05 12:44:00,
2013-03-05 07:59:00,33.5,25.0,25.59,NNW,341,0.0,-999.0,70,-99.99,,,0.00,weatherlink.com 1.10,2013-03-05 12:59:00,
2013-03-05 08:13:00,33.9,25.0,25.59,North,355,2.0,-999.0,69,-99.99,,,0.00,weatherlink.com 1.10,2013-03-05 13:13:00,
2013-03-05 08:28:00,34.4,24.0,25.59,NE,34,2.0,-999.0,67,-99.99,,,0.00,weatherlink.com 1.10,2013-03-05 13:28:00,
2013-03-05 08:43:00,35.1,25.0,25.59,NW,309,0.0,-999.0,67,-99.99,,,0.00,weatherlink.com 1.10,2013-03-05 13:43:00,
2013-03-05 08:58:00,35.8,26.0,25.59,NNW,343,2.0,-999.0,67,-99.99,,,0.00,weatherlink.com 1.10,2013-03-05 13:58:00,
2013-03-05 09:13:00,36.0,26.0,25.59,WNW,286,2.0,-999.0,66,-99.99,,,0.00,weatherlink.com 1.10,2013-03-05 14:13:00,
2013-03-05 09:28:00,36.4,26.0,25.59,NW,306,1.0,-999.0,65,-99.99,,,0.00,weatherlink.com 1.10,2013-03-05 14:28:00,
2013-03-05 09:43:00,37.0,26.0,25.59,NNW,342,1.0,-999.0,65,-99.99,,,0.00,weatherlink.com 1.10,2013-03-05 14:43:00,
2013-03-05 09:58:00,38.0,27.0,25.59,NE,36,1.0,-999.0,65,-99.99,,,0.00,weatherlink.com 1.10,2013-03-05 14:58:00,
2013-03-05 10:13:00,38.5,27.0,25.59,NW,322,1.0,-999.0,63,-99.99,,,0.00,weatherlink.com 1.10,2013-03-05 15:13:00,
2013-03-05 10:28:00,38.5,27.0,25.59,NNW,346,2.0,-999.0,64,-99.99,,,0.00,weatherlink.com 1.10,2013-03-05 15:28:00,
2013-03-05 10:43:00,40.0,28.0,25.59,NNE,22,1.0,-999.0,62,-99.99,,,0.00,weatherlink.com 1.10,2013-03-05 15:43:00,
2013-03-05 10:59:00,40.2,28.0,25.59,NW,317,0.0,-999.0,61,-99.99,,,0.00,weatherlink.com 1.10,2013-03-05 15:59:00,
2013-03-05 11:13:00,40.8,28.0,25.59,NNE,13,2.0,-999.0,60,-99.99,,,0.00,weatherlink.com 1.10,2013-03-05 16:13:00,
2013-03-05 11:28:00,40.5,27.0,25.59,NW,309,0.0,-999.0,60,-99.99,,,0.00,weatherlink.com 1.10,2013-03-05 16:28:00,
2013-03-05 11:43:00,40.8,28.0,25.59,NNW,345,0.0,-999.0,60,-99.99,,,0.00,weatherlink.com 1.10,2013-03-05 16:43:00,
2013-03-05 11:58:00,41.8,28.0,25.59,NW,314,0.0,-999.0,59,-99.99,,,0.00,weatherlink.com 1.10,2013-03-05 16:58:00,
2013-03-05 12:13:00,42.5,28.0,25.59,ENE,57,3.0,-999.0,58,-99.99,,,0.00,weatherlink.com 1.10,2013-03-05 17:13:00,
2013-03-05 12:28:00,43.1,29.0,25.59,NNE,12,0.0,-999.0,58,-99.99,,,0.00,weatherlink.com 1.10,2013-03-05 17:28:00,
2013-03-05 12:43:00,43.7,29.0,25.59,ENE,74,2.0,-999.0,56,-99.99,,,0.00,weatherlink.com 1.10,2013-03-05 17:43:00,
2013-03-05 12:59:00,43.4,28.0,25.59,NW,319,3.0,-999.0,56,-99.99,,,0.00,weatherlink.com 1.10,2013-03-05 17:59:00,
2013-03-05 13:14:00,43.0,29.0,25.59,NE,38,1.0,-999.0,57,-99.99,,,0.00,weatherlink.com 1.10,2013-03-05 18:14:00,
2013-03-05 13:29:00,43.4,28.0,26.97,North,5,0.0,-999.0,56,-99.99,,,0.00,weatherlink.com 1.10,2013-03-05 18:29:00,
2013-03-05 13:44:00,43.4,29.0,26.97,NNE,26,6.0,-999.0,57,-99.99,,,0.00,weatherlink.com 1.10,2013-03-05 18:44:00,
2013-03-05 13:59:00,43.8,29.0,25.75,NNE,22,0.0,-999.0,57,-99.99,,,0.00,weatherlink.com 1.10,2013-03-05 18:59:00,
2013-03-05 14:14:00,44.2,29.0,25.75,ESE,113,2.0,-999.0,55,-99.99,,,0.00,weatherlink.com 1.10,2013-03-05 19:14:00,
2013-03-05 14:29:00,44.1,29.0,25.75,NNE,22,3.0,-999.0,55,-99.99,,,0.00,weatherlink.com 1.10,2013-03-05 19:29:00,
2013-03-05 14:44:00,44.6,29.0,25.75,North,355,3.0,-999.0,54,-99.99,,,0.00,weatherlink.com 1.10,2013-03-05 19:44:00,
2013-03-05 14:59:00,43.8,29.0,25.75,NW,326,3.0,-999.0,56,-99.99,,,0.00,weatherlink.com 1.10,2013-03-05 19:59:00,
2013-03-05 15:14:00,43.1,29.0,25.75,NNE,33,0.0,-999.0,57,-99.99,,,0.00,weatherlink.com 1.10,2013-03-05 20:14:00,
2013-03-05 15:29:00,43.1,29.0,25.75,NNW,329,3.0,-999.0,57,-99.99,,,0.00,weatherlink.com 1.10,2013-03-05 20:29:00,
2013-03-05 15:44:00,43.2,29.0,25.75,NNE,24,3.0,-999.0,57,-99.99,,,0.00,weatherlink.com 1.10,2013-03-05 20:44:00,
2013-03-05 15:59:00,43.0,29.0,25.75,NE,37,1.0,-999.0,57,-99.99,,,0.00,weatherlink.com 1.10,2013-03-05 20:59:00,
2013-03-05 16:14:00,42.8,30.0,25.75,ENE,72,0.0,-999.0,61,-99.99,,,0.00,weatherlink.com 1.10,2013-03-05 21:14:00,
2013-03-05 16:29:00,42.6,31.0,25.75,ENE,61,0.0,-999.0,63,-99.99,,,0.00,weatherlink.com 1.10,2013-03-05 21:29:00,
2013-03-05 16:44:00,42.2,31.0,25.75,ESE,116,0.0,-999.0,65,-99.99,,,0.00,weatherlink.com 1.10,2013-03-05 21:44:00,
2013-03-05 16:59:00,41.5,30.0,25.75,ESE,116,0.0,-999.0,65,-99.99,,,0.00,weatherlink.com 1.10,2013-03-05 21:59:00,
2013-03-05 17:14:00,40.6,30.0,25.75,ESE,116,0.0,-999.0,67,-99.99,,,0.00,weatherlink.com 1.10,2013-03-05 22:14:00,
2013-03-05 17:29:00,39.3,30.0,25.75,ESE,115,0.0,-999.0,69,-99.99,,,0.00,weatherlink.com 1.10,2013-03-05 22:29:00,
2013-03-05 17:44:00,37.8,29.0,25.75,ESE,116,0.0,-999.0,71,-99.99,,,0.00,weatherlink.com 1.10,2013-03-05 22:44:00,
2013-03-05 17:59:00,36.8,29.0,27.45,ESE,116,0.0,-999.0,73,-99.99,,,0.00,weatherlink.com 1.10,2013-03-05 22:59:00,
2013-03-05 18:14:00,35.4,29.0,27.45,ESE,116,0.0,-999.0,77,-99.99,,,0.00,weatherlink.com 1.10,2013-03-05 23:14:00,
2013-03-05 18:29:00,34.4,28.0,28.02,ESE,115,0.0,-999.0,78,-99.99,,,0.00,weatherlink.com 1.10,2013-03-05 23:29:00,
2013-03-05 18:44:00,33.7,28.0,28.02,ESE,115,0.0,-999.0,80,-99.99,,,0.00,weatherlink.com 1.10,2013-03-05 23:44:00,
2013-03-05 18:59:00,32.9,28.0,28.02,ESE,116,0.0,-999.0,81,-99.99,,,0.00,weatherlink.com 1.10,2013-03-05 23:59:00,
2013-03-05 19:14:00,32.5,28.0,28.02,ESE,116,0.0,-999.0,82,-99.99,,,0.00,weatherlink.com 1.10,2013-03-06 00:14:00,
2013-03-05 19:29:00,32.2,28.0,28.02,ESE,116,0.0,-999.0,83,-99.99,,,0.00,weatherlink.com 1.10,2013-03-06 00:29:00,
2013-03-05 19:44:00,31.5,27.0,28.02,ESE,115,0.0,-999.0,83,-99.99,,,0.00,weatherlink.com 1.10,2013-03-06 00:44:00,
2013-03-05 19:59:00,30.7,26.0,28.02,ESE,115,0.0,-999.0,84,-99.99,,,0.00,weatherlink.com 1.10,2013-03-06 00:59:00,
2013-03-05 20:14:00,30.0,26.0,28.02,ESE,116,0.0,-999.0,85,-99.99,,,0.00,weatherlink.com 1.10,2013-03-06 01:14:00,
2013-03-05 20:29:00,29.6,26.0,28.02,ESE,116,0.0,-999.0,86,-99.99,,,0.00,weatherlink.com 1.10,2013-03-06 01:29:00,
2013-03-05 20:43:00,29.0,25.0,28.02,ESE,116,0.0,-999.0,86,-99.99,,,0.00,weatherlink.com 1.10,2013-03-06 01:43:00,
2013-03-05 20:59:00,28.5,25.0,28.02,ESE,116,0.0,-999.0,87,-99.99,,,0.00,weatherlink.com 1.10,2013-03-06 01:59:00,
2013-03-05 21:14:00,28.7,26.0,28.02,ESE,115,0.0,-999.0,88,-99.99,,,0.00,weatherlink.com 1.10,2013-03-06 02:14:00,
2013-03-05 21:29:00,29.4,26.0,28.02,ESE,116,0.0,-999.0,88,-99.99,,,0.00,weatherlink.com 1.10,2013-03-06 02:29:00,
2013-03-05 21:44:00,29.9,27.0,28.02,ESE,116,0.0,-999.0,88,-99.99,,,0.00,weatherlink.com 1.10,2013-03-06 02:44:00,
2013-03-05 21:59:00,30.3,27.0,28.02,ESE,116,0.0,-999.0,88,-99.99,,,0.00,weatherlink.com 1.10,2013-03-06 02:59:00,
2013-03-05 22:14:00,29.9,27.0,28.02,ESE,115,0.0,-999.0,88,-99.99,,,0.00,weatherlink.com 1.10,2013-03-06 03:14:00,
2013-03-05 22:29:00,29.6,27.0,28.02,ESE,115,0.0,-999.0,88,-99.99,,,0.00,weatherlink.com 1.10,2013-03-06 03:29:00,
2013-03-05 22:44:00,29.7,27.0,26.23,ESE,116,0.0,-999.0,88,-99.99,,,0.00,weatherlink.com 1.10,2013-03-06 03:44:00,
2013-03-05 22:59:00,30.1,27.0,26.23,ESE,116,0.0,-999.0,89,-99.99,,,0.00,weatherlink.com 1.10,2013-03-06 03:59:00,
2013-03-05 23:14:00,30.5,28.0,25.04,ESE,116,0.0,-999.0,89,-99.99,,,0.00,weatherlink.com 1.10,2013-03-06 04:14:00,
2013-03-05 23:29:00,31.0,28.0,25.04,ESE,116,0.0,-999.0,89,-99.99,,,0.00,weatherlink.com 1.10,2013-03-06 04:29:00,
2013-03-05 23:44:00,31.0,28.0,25.04,ESE,115,0.0,-999.0,89,-99.99,,,0.00,weatherlink.com 1.10,2013-03-06 04:44:00,
2013-03-05 23:59:00,31.7,29.0,25.04,ESE,115,0.0,-999.0,89,-99.99,,,0.00,weatherlink.com 1.10,2013-03-06 04:59:00,